sensor_id;sensor_type;location;lat;lon;timestamp;P1;durP1;ratioP1;P2;durP2;ratioP2
79480;SDS011;68944;48.262;14.208;2024-01-27T00:00:22;4.72;;;1.10;;
79480;SDS011;68944;48.262;14.208;2024-01-27T00:02:47;5.15;;;1.20;;
79480;SDS011;68944;48.262;14.208;2024-01-27T00:05:13;7.13;;;1.45;;
79480;SDS011;68944;48.262;14.208;2024-01-27T00:07:38;3.50;;;1.20;;
79480;SDS011;68944;48.262;14.208;2024-01-27T00:10:05;5.30;;;1.17;;
79480;SDS011;68944;48.262;14.208;2024-01-27T00:12:31;5.85;;;1.20;;
79480;SDS011;68944;48.262;14.208;2024-01-27T00:14:57;8.70;;;2.22;;
79480;SDS011;68944;48.262;14.208;2024-01-27T00:17:22;5.28;;;1.08;;
79480;SDS011;68944;48.262;14.208;2024-01-27T00:19:53;6.07;;;1.20;;
79480;SDS011;68944;48.262;14.208;2024-01-27T00:22:19;2.35;;;0.90;;
79480;SDS011;68944;48.262;14.208;2024-01-27T00:24:48;5.22;;;1.13;;
79480;SDS011;68944;48.262;14.208;2024-01-27T00:27:13;2.40;;;0.90;;
79480;SDS011;68944;48.262;14.208;2024-01-27T00:29:39;6.25;;;1.40;;
79480;SDS011;68944;48.262;14.208;2024-01-27T00:32:05;4.50;;;1.10;;
79480;SDS011;68944;48.262;14.208;2024-01-27T00:34:30;5.15;;;1.17;;
79480;SDS011;68944;48.262;14.208;2024-01-27T00:36:56;4.43;;;1.08;;
79480;SDS011;68944;48.262;14.208;2024-01-27T00:39:22;5.00;;;1.25;;
79480;SDS011;68944;48.262;14.208;2024-01-27T00:41:47;4.32;;;1.08;;
79480;SDS011;68944;48.262;14.208;2024-01-27T00:44:13;5.32;;;1.23;;
79480;SDS011;68944;48.262;14.208;2024-01-27T00:46:39;3.65;;;1.20;;
79480;SDS011;68944;48.262;14.208;2024-01-27T00:49:05;6.35;;;1.48;;
79480;SDS011;68944;48.262;14.208;2024-01-27T00:51:30;4.88;;;1.55;;
79480;SDS011;68944;48.262;14.208;2024-01-27T00:53:56;3.28;;;1.23;;
79480;SDS011;68944;48.262;14.208;2024-01-27T00:56:21;3.85;;;1.13;;
79480;SDS011;68944;48.262;14.208;2024-01-27T00:58:47;8.57;;;1.13;;
79480;SDS011;68944;48.262;14.208;2024-01-27T01:01:13;5.65;;;1.30;;
79480;SDS011;68944;48.262;14.208;2024-01-27T01:03:39;4.47;;;1.25;;
79480;SDS011;68944;48.262;14.208;2024-01-27T01:06:05;10.75;;;1.70;;
79480;SDS011;68944;48.262;14.208;2024-01-27T01:08:31;5.05;;;1.20;;
79480;SDS011;68944;48.262;14.208;2024-01-27T01:10:58;7.25;;;1.45;;
79480;SDS011;68944;48.262;14.208;2024-01-27T01:13:23;5.65;;;1.30;;
79480;SDS011;68944;48.262;14.208;2024-01-27T01:15:49;8.10;;;1.70;;
79480;SDS011;68944;48.262;14.208;2024-01-27T01:18:14;6.18;;;1.50;;
79480;SDS011;68944;48.262;14.208;2024-01-27T01:20:40;5.35;;;1.40;;
79480;SDS011;68944;48.262;14.208;2024-01-27T01:23:05;5.68;;;1.70;;
79480;SDS011;68944;48.262;14.208;2024-01-27T01:25:31;6.13;;;1.48;;
79480;SDS011;68944;48.262;14.208;2024-01-27T01:27:56;3.45;;;1.13;;
79480;SDS011;68944;48.262;14.208;2024-01-27T01:30:22;4.78;;;1.40;;
79480;SDS011;68944;48.262;14.208;2024-01-27T01:32:47;5.20;;;1.40;;
79480;SDS011;68944;48.262;14.208;2024-01-27T01:35:13;3.95;;;0.90;;
79480;SDS011;68944;48.262;14.208;2024-01-27T01:37:38;5.68;;;1.17;;
79480;SDS011;68944;48.262;14.208;2024-01-27T01:40:05;6.43;;;1.20;;
79480;SDS011;68944;48.262;14.208;2024-01-27T01:42:32;3.50;;;1.00;;
79480;SDS011;68944;48.262;14.208;2024-01-27T01:44:58;4.00;;;1.30;;
79480;SDS011;68944;48.262;14.208;2024-01-27T01:47:24;2.53;;;0.93;;
79480;SDS011;68944;48.262;14.208;2024-01-27T01:49:50;5.22;;;1.35;;
79480;SDS011;68944;48.262;14.208;2024-01-27T01:52:17;3.80;;;1.10;;
79480;SDS011;68944;48.262;14.208;2024-01-27T01:54:47;8.10;;;1.30;;
79480;SDS011;68944;48.262;14.208;2024-01-27T01:57:14;4.50;;;1.20;;
79480;SDS011;68944;48.262;14.208;2024-01-27T01:59:39;5.97;;;1.30;;
79480;SDS011;68944;48.262;14.208;2024-01-27T02:02:06;8.65;;;1.67;;
79480;SDS011;68944;48.262;14.208;2024-01-27T02:04:41;8.32;;;1.15;;
79480;SDS011;68944;48.262;14.208;2024-01-27T02:07:08;5.30;;;1.45;;
79480;SDS011;68944;48.262;14.208;2024-01-27T02:09:35;3.53;;;1.20;;
79480;SDS011;68944;48.262;14.208;2024-01-27T02:12:01;2.85;;;0.93;;
79480;SDS011;68944;48.262;14.208;2024-01-27T02:14:28;5.20;;;1.20;;
79480;SDS011;68944;48.262;14.208;2024-01-27T02:16:54;3.47;;;1.17;;
79480;SDS011;68944;48.262;14.208;2024-01-27T02:19:19;3.20;;;1.10;;
79480;SDS011;68944;48.262;14.208;2024-01-27T02:21:45;5.75;;;1.23;;
79480;SDS011;68944;48.262;14.208;2024-01-27T02:24:11;3.88;;;1.30;;
79480;SDS011;68944;48.262;14.208;2024-01-27T02:26:36;4.60;;;1.20;;
79480;SDS011;68944;48.262;14.208;2024-01-27T02:29:02;3.85;;;1.08;;
79480;SDS011;68944;48.262;14.208;2024-01-27T02:31:28;7.88;;;1.70;;
79480;SDS011;68944;48.262;14.208;2024-01-27T02:33:53;4.32;;;1.00;;
79480;SDS011;68944;48.262;14.208;2024-01-27T02:36:19;4.18;;;1.20;;
79480;SDS011;68944;48.262;14.208;2024-01-27T02:38:44;4.13;;;1.15;;
79480;SDS011;68944;48.262;14.208;2024-01-27T02:41:10;4.63;;;1.27;;
79480;SDS011;68944;48.262;14.208;2024-01-27T02:43:37;5.43;;;1.58;;
79480;SDS011;68944;48.262;14.208;2024-01-27T02:46:12;6.38;;;1.30;;
79480;SDS011;68944;48.262;14.208;2024-01-27T02:51:07;5.13;;;1.20;;
79480;SDS011;68944;48.262;14.208;2024-01-27T02:53:33;5.68;;;1.35;;
79480;SDS011;68944;48.262;14.208;2024-01-27T02:55:58;5.57;;;1.48;;
79480;SDS011;68944;48.262;14.208;2024-01-27T02:58:24;5.97;;;1.50;;
79480;SDS011;68944;48.262;14.208;2024-01-27T03:00:50;6.53;;;1.38;;
79480;SDS011;68944;48.262;14.208;2024-01-27T03:03:15;5.45;;;1.35;;
79480;SDS011;68944;48.262;14.208;2024-01-27T03:05:41;5.63;;;1.30;;
79480;SDS011;68944;48.262;14.208;2024-01-27T03:08:07;4.97;;;1.67;;
79480;SDS011;68944;48.262;14.208;2024-01-27T03:10:33;5.80;;;1.30;;
79480;SDS011;68944;48.262;14.208;2024-01-27T03:12:58;6.32;;;1.52;;
79480;SDS011;68944;48.262;14.208;2024-01-27T03:15:24;5.40;;;1.40;;
79480;SDS011;68944;48.262;14.208;2024-01-27T03:17:49;7.93;;;1.38;;
79480;SDS011;68944;48.262;14.208;2024-01-27T03:20:15;3.88;;;1.25;;
79480;SDS011;68944;48.262;14.208;2024-01-27T03:22:41;6.93;;;1.52;;
79480;SDS011;68944;48.262;14.208;2024-01-27T03:25:10;5.20;;;1.50;;
79480;SDS011;68944;48.262;14.208;2024-01-27T03:27:39;7.38;;;1.67;;
79480;SDS011;68944;48.262;14.208;2024-01-27T03:30:04;4.25;;;1.23;;
79480;SDS011;68944;48.262;14.208;2024-01-27T03:32:31;6.10;;;1.73;;
79480;SDS011;68944;48.262;14.208;2024-01-27T03:35:00;5.57;;;1.42;;
79480;SDS011;68944;48.262;14.208;2024-01-27T03:37:26;8.15;;;2.15;;
79480;SDS011;68944;48.262;14.208;2024-01-27T03:39:52;6.55;;;2.00;;
79480;SDS011;68944;48.262;14.208;2024-01-27T03:42:18;10.38;;;1.75;;
79480;SDS011;68944;48.262;14.208;2024-01-27T03:44:43;5.30;;;1.23;;
79480;SDS011;68944;48.262;14.208;2024-01-27T03:47:09;6.55;;;1.65;;
79480;SDS011;68944;48.262;14.208;2024-01-27T03:49:35;8.52;;;1.55;;
79480;SDS011;68944;48.262;14.208;2024-01-27T03:52:02;8.93;;;1.85;;
79480;SDS011;68944;48.262;14.208;2024-01-27T03:54:27;6.00;;;1.50;;
79480;SDS011;68944;48.262;14.208;2024-01-27T03:56:54;5.10;;;1.20;;
79480;SDS011;68944;48.262;14.208;2024-01-27T03:59:20;7.70;;;1.90;;
79480;SDS011;68944;48.262;14.208;2024-01-27T04:01:45;9.15;;;1.50;;
79480;SDS011;68944;48.262;14.208;2024-01-27T04:04:11;4.90;;;1.48;;
79480;SDS011;68944;48.262;14.208;2024-01-27T04:06:37;5.78;;;1.58;;
79480;SDS011;68944;48.262;14.208;2024-01-27T04:09:03;7.65;;;1.30;;
79480;SDS011;68944;48.262;14.208;2024-01-27T04:11:29;5.47;;;1.70;;
79480;SDS011;68944;48.262;14.208;2024-01-27T04:13:54;4.40;;;1.15;;
79480;SDS011;68944;48.262;14.208;2024-01-27T04:16:20;9.40;;;1.73;;
79480;SDS011;68944;48.262;14.208;2024-01-27T04:18:46;6.47;;;1.58;;
79480;SDS011;68944;48.262;14.208;2024-01-27T04:21:11;7.55;;;1.75;;
79480;SDS011;68944;48.262;14.208;2024-01-27T04:23:37;6.47;;;1.30;;
79480;SDS011;68944;48.262;14.208;2024-01-27T04:26:02;5.80;;;1.40;;
79480;SDS011;68944;48.262;14.208;2024-01-27T04:28:28;9.13;;;1.60;;
79480;SDS011;68944;48.262;14.208;2024-01-27T04:30:55;7.60;;;1.50;;
79480;SDS011;68944;48.262;14.208;2024-01-27T04:33:21;6.28;;;1.58;;
79480;SDS011;68944;48.262;14.208;2024-01-27T04:35:46;10.13;;;1.70;;
79480;SDS011;68944;48.262;14.208;2024-01-27T04:38:12;7.50;;;1.38;;
79480;SDS011;68944;48.262;14.208;2024-01-27T04:40:37;8.00;;;1.50;;
79480;SDS011;68944;48.262;14.208;2024-01-27T04:43:03;7.68;;;1.60;;
79480;SDS011;68944;48.262;14.208;2024-01-27T04:45:28;9.13;;;1.48;;
79480;SDS011;68944;48.262;14.208;2024-01-27T04:47:54;5.00;;;1.50;;
79480;SDS011;68944;48.262;14.208;2024-01-27T04:50:20;8.57;;;1.85;;
79480;SDS011;68944;48.262;14.208;2024-01-27T04:52:45;5.90;;;1.40;;
79480;SDS011;68944;48.262;14.208;2024-01-27T04:55:11;6.65;;;1.60;;
79480;SDS011;68944;48.262;14.208;2024-01-27T04:57:37;6.65;;;1.63;;
79480;SDS011;68944;48.262;14.208;2024-01-27T05:00:03;5.72;;;1.50;;
79480;SDS011;68944;48.262;14.208;2024-01-27T05:02:38;13.38;;;1.80;;
79480;SDS011;68944;48.262;14.208;2024-01-27T05:05:07;6.10;;;1.50;;
79480;SDS011;68944;48.262;14.208;2024-01-27T05:07:33;7.45;;;1.80;;
79480;SDS011;68944;48.262;14.208;2024-01-27T05:09:59;8.13;;;1.73;;
79480;SDS011;68944;48.262;14.208;2024-01-27T05:12:24;4.13;;;1.42;;
79480;SDS011;68944;48.262;14.208;2024-01-27T05:14:50;4.88;;;1.50;;
79480;SDS011;68944;48.262;14.208;2024-01-27T05:17:15;12.50;;;2.28;;
79480;SDS011;68944;48.262;14.208;2024-01-27T05:19:41;6.32;;;1.40;;
79480;SDS011;68944;48.262;14.208;2024-01-27T05:22:06;8.05;;;1.80;;
79480;SDS011;68944;48.262;14.208;2024-01-27T05:24:32;10.50;;;2.00;;
79480;SDS011;68944;48.262;14.208;2024-01-27T05:26:58;8.60;;;2.08;;
79480;SDS011;68944;48.262;14.208;2024-01-27T05:29:24;10.15;;;1.67;;
79480;SDS011;68944;48.262;14.208;2024-01-27T05:31:50;8.05;;;1.98;;
79480;SDS011;68944;48.262;14.208;2024-01-27T05:34:18;5.60;;;1.70;;
79480;SDS011;68944;48.262;14.208;2024-01-27T05:36:43;7.32;;;1.50;;
79480;SDS011;68944;48.262;14.208;2024-01-27T05:39:09;6.28;;;1.63;;
79480;SDS011;68944;48.262;14.208;2024-01-27T05:41:35;5.03;;;1.45;;
79480;SDS011;68944;48.262;14.208;2024-01-27T05:44:00;9.68;;;1.88;;
79480;SDS011;68944;48.262;14.208;2024-01-27T05:46:26;10.82;;;1.85;;
79480;SDS011;68944;48.262;14.208;2024-01-27T05:48:52;10.52;;;2.40;;
79480;SDS011;68944;48.262;14.208;2024-01-27T05:51:19;11.73;;;2.28;;
79480;SDS011;68944;48.262;14.208;2024-01-27T05:53:45;7.97;;;2.28;;
79480;SDS011;68944;48.262;14.208;2024-01-27T05:56:11;9.35;;;2.13;;
79480;SDS011;68944;48.262;14.208;2024-01-27T05:58:37;6.50;;;2.00;;
79480;SDS011;68944;48.262;14.208;2024-01-27T06:01:02;6.88;;;2.00;;
79480;SDS011;68944;48.262;14.208;2024-01-27T06:03:28;7.40;;;2.00;;
79480;SDS011;68944;48.262;14.208;2024-01-27T06:05:54;5.75;;;1.55;;
79480;SDS011;68944;48.262;14.208;2024-01-27T06:08:20;7.72;;;1.65;;
79480;SDS011;68944;48.262;14.208;2024-01-27T06:10:46;7.40;;;2.00;;
79480;SDS011;68944;48.262;14.208;2024-01-27T06:13:12;7.03;;;1.90;;
79480;SDS011;68944;48.262;14.208;2024-01-27T06:15:37;8.82;;;2.00;;
79480;SDS011;68944;48.262;14.208;2024-01-27T06:18:04;7.82;;;2.10;;
79480;SDS011;68944;48.262;14.208;2024-01-27T06:20:31;7.47;;;1.90;;
79480;SDS011;68944;48.262;14.208;2024-01-27T06:22:56;6.57;;;1.67;;
79480;SDS011;68944;48.262;14.208;2024-01-27T06:25:22;7.85;;;1.80;;
79480;SDS011;68944;48.262;14.208;2024-01-27T06:27:48;6.50;;;1.80;;
79480;SDS011;68944;48.262;14.208;2024-01-27T06:30:14;7.65;;;2.15;;
79480;SDS011;68944;48.262;14.208;2024-01-27T06:32:40;10.52;;;2.25;;
79480;SDS011;68944;48.262;14.208;2024-01-27T06:35:06;7.72;;;2.00;;
79480;SDS011;68944;48.262;14.208;2024-01-27T06:37:32;9.55;;;2.33;;
79480;SDS011;68944;48.262;14.208;2024-01-27T06:39:58;8.45;;;1.92;;
79480;SDS011;68944;48.262;14.208;2024-01-27T06:42:24;8.00;;;2.03;;
79480;SDS011;68944;48.262;14.208;2024-01-27T06:44:50;6.15;;;2.08;;
79480;SDS011;68944;48.262;14.208;2024-01-27T06:47:15;10.00;;;1.85;;
79480;SDS011;68944;48.262;14.208;2024-01-27T06:49:41;7.88;;;2.00;;
79480;SDS011;68944;48.262;14.208;2024-01-27T06:52:06;9.55;;;1.85;;
79480;SDS011;68944;48.262;14.208;2024-01-27T06:54:32;10.43;;;2.10;;
79480;SDS011;68944;48.262;14.208;2024-01-27T06:57:01;6.30;;;2.30;;
79480;SDS011;68944;48.262;14.208;2024-01-27T06:59:26;4.65;;;1.70;;
79480;SDS011;68944;48.262;14.208;2024-01-27T07:01:52;7.45;;;2.10;;
79480;SDS011;68944;48.262;14.208;2024-01-27T07:04:18;13.65;;;2.50;;
79480;SDS011;68944;48.262;14.208;2024-01-27T07:06:44;8.30;;;2.00;;
79480;SDS011;68944;48.262;14.208;2024-01-27T07:09:09;8.38;;;2.75;;
79480;SDS011;68944;48.262;14.208;2024-01-27T07:11:36;6.78;;;1.90;;
79480;SDS011;68944;48.262;14.208;2024-01-27T07:14:02;7.97;;;2.00;;
79480;SDS011;68944;48.262;14.208;2024-01-27T07:16:28;7.85;;;2.10;;
79480;SDS011;68944;48.262;14.208;2024-01-27T07:18:54;8.18;;;2.03;;
79480;SDS011;68944;48.262;14.208;2024-01-27T07:21:19;7.72;;;1.90;;
79480;SDS011;68944;48.262;14.208;2024-01-27T07:23:45;7.97;;;1.77;;
79480;SDS011;68944;48.262;14.208;2024-01-27T07:26:10;12.68;;;2.35;;
79480;SDS011;68944;48.262;14.208;2024-01-27T07:28:36;6.35;;;1.90;;
79480;SDS011;68944;48.262;14.208;2024-01-27T07:31:03;8.88;;;2.08;;
79480;SDS011;68944;48.262;14.208;2024-01-27T07:33:29;6.70;;;2.30;;
79480;SDS011;68944;48.262;14.208;2024-01-27T07:35:54;7.60;;;2.10;;
79480;SDS011;68944;48.262;14.208;2024-01-27T07:38:20;7.18;;;2.28;;
79480;SDS011;68944;48.262;14.208;2024-01-27T07:40:46;10.60;;;2.60;;
79480;SDS011;68944;48.262;14.208;2024-01-27T07:43:11;9.02;;;2.35;;
79480;SDS011;68944;48.262;14.208;2024-01-27T07:45:37;8.48;;;2.33;;
79480;SDS011;68944;48.262;14.208;2024-01-27T07:48:02;7.03;;;2.00;;
79480;SDS011;68944;48.262;14.208;2024-01-27T07:50:28;15.30;;;2.90;;
79480;SDS011;68944;48.262;14.208;2024-01-27T07:52:54;7.78;;;2.33;;
79480;SDS011;68944;48.262;14.208;2024-01-27T07:55:20;8.88;;;2.38;;
79480;SDS011;68944;48.262;14.208;2024-01-27T07:57:46;9.05;;;2.22;;
79480;SDS011;68944;48.262;14.208;2024-01-27T08:00:12;9.30;;;2.30;;
79480;SDS011;68944;48.262;14.208;2024-01-27T08:02:38;8.20;;;2.35;;
79480;SDS011;68944;48.262;14.208;2024-01-27T08:05:03;8.27;;;2.47;;
79480;SDS011;68944;48.262;14.208;2024-01-27T08:07:29;8.18;;;2.17;;
79480;SDS011;68944;48.262;14.208;2024-01-27T08:09:55;9.30;;;2.80;;
79480;SDS011;68944;48.262;14.208;2024-01-27T08:12:22;12.88;;;2.90;;
79480;SDS011;68944;48.262;14.208;2024-01-27T08:14:48;11.63;;;2.28;;
79480;SDS011;68944;48.262;14.208;2024-01-27T08:17:13;8.45;;;2.40;;
79480;SDS011;68944;48.262;14.208;2024-01-27T08:19:39;11.00;;;2.80;;
79480;SDS011;68944;48.262;14.208;2024-01-27T08:22:05;9.55;;;2.40;;
79480;SDS011;68944;48.262;14.208;2024-01-27T08:24:30;10.10;;;2.38;;
79480;SDS011;68944;48.262;14.208;2024-01-27T08:26:56;10.48;;;2.22;;
79480;SDS011;68944;48.262;14.208;2024-01-27T08:29:23;9.63;;;2.35;;
79480;SDS011;68944;48.262;14.208;2024-01-27T08:31:49;8.15;;;2.67;;
79480;SDS011;68944;48.262;14.208;2024-01-27T08:34:17;10.65;;;2.50;;
79480;SDS011;68944;48.262;14.208;2024-01-27T08:36:42;8.23;;;2.33;;
79480;SDS011;68944;48.262;14.208;2024-01-27T08:39:08;9.52;;;2.17;;
79480;SDS011;68944;48.262;14.208;2024-01-27T08:41:34;9.40;;;2.58;;
79480;SDS011;68944;48.262;14.208;2024-01-27T08:43:59;10.80;;;2.40;;
79480;SDS011;68944;48.262;14.208;2024-01-27T08:46:25;9.25;;;2.17;;
79480;SDS011;68944;48.262;14.208;2024-01-27T08:48:51;11.48;;;3.30;;
79480;SDS011;68944;48.262;14.208;2024-01-27T08:51:16;8.95;;;2.38;;
79480;SDS011;68944;48.262;14.208;2024-01-27T08:53:43;6.07;;;2.28;;
79480;SDS011;68944;48.262;14.208;2024-01-27T08:56:17;10.18;;;2.78;;
79480;SDS011;68944;48.262;14.208;2024-01-27T08:58:43;10.60;;;2.50;;
79480;SDS011;68944;48.262;14.208;2024-01-27T09:01:09;9.65;;;2.38;;
79480;SDS011;68944;48.262;14.208;2024-01-27T09:03:38;8.77;;;2.63;;
79480;SDS011;68944;48.262;14.208;2024-01-27T09:06:05;10.95;;;2.58;;
79480;SDS011;68944;48.262;14.208;2024-01-27T09:08:33;9.85;;;2.15;;
79480;SDS011;68944;48.262;14.208;2024-01-27T09:10:59;13.60;;;2.60;;
79480;SDS011;68944;48.262;14.208;2024-01-27T09:13:24;10.07;;;2.63;;
79480;SDS011;68944;48.262;14.208;2024-01-27T09:15:50;6.75;;;2.17;;
79480;SDS011;68944;48.262;14.208;2024-01-27T09:18:15;12.93;;;2.33;;
79480;SDS011;68944;48.262;14.208;2024-01-27T09:20:42;8.10;;;2.28;;
79480;SDS011;68944;48.262;14.208;2024-01-27T09:23:07;11.98;;;2.33;;
79480;SDS011;68944;48.262;14.208;2024-01-27T09:25:33;16.67;;;2.95;;
79480;SDS011;68944;48.262;14.208;2024-01-27T09:27:58;13.05;;;2.72;;
79480;SDS011;68944;48.262;14.208;2024-01-27T09:30:26;7.72;;;2.35;;
79480;SDS011;68944;48.262;14.208;2024-01-27T09:32:52;10.55;;;2.50;;
79480;SDS011;68944;48.262;14.208;2024-01-27T09:35:17;10.85;;;3.13;;
79480;SDS011;68944;48.262;14.208;2024-01-27T09:37:43;9.95;;;2.65;;
79480;SDS011;68944;48.262;14.208;2024-01-27T09:40:09;10.23;;;2.85;;
79480;SDS011;68944;48.262;14.208;2024-01-27T09:42:35;9.32;;;2.42;;
79480;SDS011;68944;48.262;14.208;2024-01-27T09:45:06;8.57;;;2.70;;
79480;SDS011;68944;48.262;14.208;2024-01-27T09:47:34;11.90;;;2.78;;
79480;SDS011;68944;48.262;14.208;2024-01-27T09:50:01;6.53;;;2.40;;
79480;SDS011;68944;48.262;14.208;2024-01-27T09:52:26;12.25;;;3.20;;
79480;SDS011;68944;48.262;14.208;2024-01-27T09:54:53;10.30;;;2.70;;
79480;SDS011;68944;48.262;14.208;2024-01-27T09:57:18;10.95;;;2.83;;
79480;SDS011;68944;48.262;14.208;2024-01-27T09:59:46;13.35;;;2.50;;
79480;SDS011;68944;48.262;14.208;2024-01-27T10:02:12;15.05;;;2.83;;
79480;SDS011;68944;48.262;14.208;2024-01-27T10:04:41;10.10;;;2.58;;
79480;SDS011;68944;48.262;14.208;2024-01-27T10:07:07;9.35;;;2.97;;
79480;SDS011;68944;48.262;14.208;2024-01-27T10:09:33;8.60;;;2.50;;
79480;SDS011;68944;48.262;14.208;2024-01-27T10:11:58;15.38;;;2.58;;
79480;SDS011;68944;48.262;14.208;2024-01-27T10:14:37;10.75;;;2.58;;
79480;SDS011;68944;48.262;14.208;2024-01-27T10:17:04;8.90;;;2.25;;
79480;SDS011;68944;48.262;14.208;2024-01-27T10:19:30;12.85;;;2.85;;
79480;SDS011;68944;48.262;14.208;2024-01-27T10:22:01;10.10;;;2.90;;
79480;SDS011;68944;48.262;14.208;2024-01-27T10:24:28;8.20;;;2.42;;
79480;SDS011;68944;48.262;14.208;2024-01-27T10:27:01;9.50;;;2.70;;
79480;SDS011;68944;48.262;14.208;2024-01-27T10:29:27;8.38;;;2.90;;
79480;SDS011;68944;48.262;14.208;2024-01-27T10:31:53;10.63;;;2.90;;
79480;SDS011;68944;48.262;14.208;2024-01-27T10:34:21;8.18;;;2.30;;
79480;SDS011;68944;48.262;14.208;2024-01-27T10:36:47;12.63;;;2.47;;
79480;SDS011;68944;48.262;14.208;2024-01-27T10:39:16;10.82;;;2.33;;
79480;SDS011;68944;48.262;14.208;2024-01-27T10:41:44;12.65;;;2.97;;
79480;SDS011;68944;48.262;14.208;2024-01-27T10:44:12;12.38;;;2.60;;
79480;SDS011;68944;48.262;14.208;2024-01-27T10:46:41;7.78;;;2.40;;
79480;SDS011;68944;48.262;14.208;2024-01-27T10:49:08;11.25;;;2.92;;
79480;SDS011;68944;48.262;14.208;2024-01-27T10:51:37;9.52;;;2.60;;
79480;SDS011;68944;48.262;14.208;2024-01-27T10:54:08;9.90;;;2.50;;
79480;SDS011;68944;48.262;14.208;2024-01-27T10:56:39;11.65;;;2.80;;
79480;SDS011;68944;48.262;14.208;2024-01-27T10:59:07;10.75;;;3.30;;
79480;SDS011;68944;48.262;14.208;2024-01-27T11:01:35;12.65;;;2.25;;
79480;SDS011;68944;48.262;14.208;2024-01-27T11:04:03;9.60;;;2.50;;
79480;SDS011;68944;48.262;14.208;2024-01-27T11:06:29;9.77;;;2.67;;
79480;SDS011;68944;48.262;14.208;2024-01-27T11:08:56;11.55;;;2.92;;
79480;SDS011;68944;48.262;14.208;2024-01-27T11:11:23;13.15;;;2.80;;
79480;SDS011;68944;48.262;14.208;2024-01-27T11:13:48;8.63;;;2.30;;
79480;SDS011;68944;48.262;14.208;2024-01-27T11:16:16;12.10;;;2.97;;
79480;SDS011;68944;48.262;14.208;2024-01-27T11:18:43;7.35;;;2.40;;
79480;SDS011;68944;48.262;14.208;2024-01-27T11:21:12;7.93;;;1.90;;
79480;SDS011;68944;48.262;14.208;2024-01-27T11:23:40;13.35;;;3.05;;
79480;SDS011;68944;48.262;14.208;2024-01-27T11:26:05;10.32;;;2.25;;
79480;SDS011;68944;48.262;14.208;2024-01-27T11:28:32;9.35;;;2.60;;
79480;SDS011;68944;48.262;14.208;2024-01-27T11:30:58;8.60;;;2.53;;
79480;SDS011;68944;48.262;14.208;2024-01-27T11:33:26;8.88;;;2.38;;
79480;SDS011;68944;48.262;14.208;2024-01-27T11:38:27;7.07;;;2.17;;
79480;SDS011;68944;48.262;14.208;2024-01-27T11:40:53;11.65;;;2.70;;
79480;SDS011;68944;48.262;14.208;2024-01-27T11:43:18;11.45;;;2.75;;
79480;SDS011;68944;48.262;14.208;2024-01-27T11:45:54;10.07;;;2.45;;
79480;SDS011;68944;48.262;14.208;2024-01-27T11:48:23;7.22;;;2.15;;
79480;SDS011;68944;48.262;14.208;2024-01-27T11:50:48;9.50;;;2.58;;
79480;SDS011;68944;48.262;14.208;2024-01-27T11:53:16;8.63;;;2.25;;
79480;SDS011;68944;48.262;14.208;2024-01-27T11:55:41;13.13;;;2.80;;
79480;SDS011;68944;48.262;14.208;2024-01-27T11:58:06;10.68;;;2.67;;
79480;SDS011;68944;48.262;14.208;2024-01-27T12:00:32;10.57;;;2.35;;
79480;SDS011;68944;48.262;14.208;2024-01-27T12:02:57;11.38;;;2.42;;
79480;SDS011;68944;48.262;14.208;2024-01-27T12:05:23;15.30;;;2.60;;
79480;SDS011;68944;48.262;14.208;2024-01-27T12:07:49;11.18;;;2.13;;
79480;SDS011;68944;48.262;14.208;2024-01-27T12:10:15;10.93;;;2.30;;
79480;SDS011;68944;48.262;14.208;2024-01-27T12:12:40;11.48;;;2.90;;
79480;SDS011;68944;48.262;14.208;2024-01-27T12:15:06;9.80;;;2.10;;
79480;SDS011;68944;48.262;14.208;2024-01-27T12:17:32;9.55;;;2.15;;
79480;SDS011;68944;48.262;14.208;2024-01-27T12:19:57;9.40;;;2.40;;
79480;SDS011;68944;48.262;14.208;2024-01-27T12:22:26;7.63;;;2.28;;
79480;SDS011;68944;48.262;14.208;2024-01-27T12:24:53;9.88;;;2.10;;
79480;SDS011;68944;48.262;14.208;2024-01-27T12:27:21;10.48;;;2.40;;
79480;SDS011;68944;48.262;14.208;2024-01-27T12:29:48;8.20;;;2.13;;
79480;SDS011;68944;48.262;14.208;2024-01-27T12:32:15;6.30;;;1.90;;
79480;SDS011;68944;48.262;14.208;2024-01-27T12:34:41;10.30;;;2.20;;
79480;SDS011;68944;48.262;14.208;2024-01-27T12:37:08;6.85;;;2.30;;
79480;SDS011;68944;48.262;14.208;2024-01-27T12:39:36;13.95;;;2.47;;
79480;SDS011;68944;48.262;14.208;2024-01-27T12:42:01;9.35;;;2.40;;
79480;SDS011;68944;48.262;14.208;2024-01-27T12:44:27;9.13;;;2.47;;
79480;SDS011;68944;48.262;14.208;2024-01-27T12:46:52;10.23;;;1.95;;
79480;SDS011;68944;48.262;14.208;2024-01-27T12:49:19;11.07;;;1.77;;
79480;SDS011;68944;48.262;14.208;2024-01-27T12:51:44;6.63;;;1.98;;
79480;SDS011;68944;48.262;14.208;2024-01-27T12:54:11;15.52;;;2.22;;
79480;SDS011;68944;48.262;14.208;2024-01-27T12:56:36;7.45;;;2.00;;
79480;SDS011;68944;48.262;14.208;2024-01-27T12:59:02;10.05;;;1.95;;
79480;SDS011;68944;48.262;14.208;2024-01-27T13:01:28;6.85;;;1.52;;
79480;SDS011;68944;48.262;14.208;2024-01-27T13:03:53;12.55;;;2.17;;
79480;SDS011;68944;48.262;14.208;2024-01-27T13:06:18;7.47;;;2.00;;
79480;SDS011;68944;48.262;14.208;2024-01-27T13:08:45;9.27;;;1.80;;
79480;SDS011;68944;48.262;14.208;2024-01-27T13:11:11;9.63;;;2.03;;
79480;SDS011;68944;48.262;14.208;2024-01-27T13:13:40;6.55;;;1.67;;
79480;SDS011;68944;48.262;14.208;2024-01-27T13:16:06;6.47;;;1.88;;
79480;SDS011;68944;48.262;14.208;2024-01-27T13:18:32;7.82;;;2.03;;
79480;SDS011;68944;48.262;14.208;2024-01-27T13:20:57;9.95;;;2.00;;
79480;SDS011;68944;48.262;14.208;2024-01-27T13:23:23;5.43;;;1.67;;
79480;SDS011;68944;48.262;14.208;2024-01-27T13:25:48;9.30;;;2.25;;
79480;SDS011;68944;48.262;14.208;2024-01-27T13:28:14;8.80;;;1.90;;
79480;SDS011;68944;48.262;14.208;2024-01-27T13:30:39;9.18;;;1.98;;
79480;SDS011;68944;48.262;14.208;2024-01-27T13:33:06;8.95;;;2.15;;
79480;SDS011;68944;48.262;14.208;2024-01-27T13:35:31;8.00;;;1.90;;
79480;SDS011;68944;48.262;14.208;2024-01-27T13:37:57;6.43;;;1.83;;
79480;SDS011;68944;48.262;14.208;2024-01-27T13:40:23;8.93;;;1.90;;
79480;SDS011;68944;48.262;14.208;2024-01-27T13:42:48;6.95;;;1.80;;
79480;SDS011;68944;48.262;14.208;2024-01-27T13:45:14;7.57;;;1.75;;
79480;SDS011;68944;48.262;14.208;2024-01-27T13:47:39;6.95;;;1.92;;
79480;SDS011;68944;48.262;14.208;2024-01-27T13:50:05;10.93;;;2.20;;
79480;SDS011;68944;48.262;14.208;2024-01-27T13:52:31;9.25;;;2.20;;
79480;SDS011;68944;48.262;14.208;2024-01-27T13:54:57;6.90;;;1.80;;
79480;SDS011;68944;48.262;14.208;2024-01-27T13:57:23;9.52;;;1.85;;
79480;SDS011;68944;48.262;14.208;2024-01-27T13:59:48;11.57;;;2.50;;
79480;SDS011;68944;48.262;14.208;2024-01-27T14:02:14;9.60;;;1.77;;
79480;SDS011;68944;48.262;14.208;2024-01-27T14:04:39;8.32;;;1.73;;
79480;SDS011;68944;48.262;14.208;2024-01-27T14:07:05;10.75;;;2.20;;
79480;SDS011;68944;48.262;14.208;2024-01-27T14:09:34;10.60;;;2.25;;
79480;SDS011;68944;48.262;14.208;2024-01-27T14:12:00;10.10;;;2.40;;
79480;SDS011;68944;48.262;14.208;2024-01-27T14:14:26;7.07;;;1.60;;
79480;SDS011;68944;48.262;14.208;2024-01-27T14:16:51;8.32;;;1.95;;
79480;SDS011;68944;48.262;14.208;2024-01-27T14:19:17;12.55;;;2.45;;
79480;SDS011;68944;48.262;14.208;2024-01-27T14:21:43;8.95;;;2.20;;
79480;SDS011;68944;48.262;14.208;2024-01-27T14:24:08;12.85;;;3.47;;
79480;SDS011;68944;48.262;14.208;2024-01-27T14:26:34;9.63;;;2.13;;
79480;SDS011;68944;48.262;14.208;2024-01-27T14:28:59;6.95;;;1.80;;